Time;durP1;ratioP1;P1;durP2;ratioP2;P2;SDS_P1;SDS_P2;PMS_P1;PMS_P2;Temp;Humidity;BMP_temperature;BMP_pressure;BME280_temperature;BME280_humidity;BME280_pressure;Samples;Min_cycle;Max_cycle;Signal;HPM_P1;HPM_P2
2021/05/29 00:01:18;;;;;;;6.53;2.15;;;;;;;;;;5051810;28;20049;-60
2021/05/29 00:03:44;;;;;;;4.15;1.95;;;;;;;;;;5040273;28;20106;-59
2021/05/29 00:06:10;;;;;;;4.55;1.95;;;;;;;;;;5041651;28;20040;-58
2021/05/29 00:08:36;;;;;;;8.73;1.92;;;;;;;;;;5060997;28;20068;-59
2021/05/29 00:11:03;;;;;;;3.97;1.92;;;;;;;;;;5055815;28;20040;-60
2021/05/29 00:13:30;;;;;;;4.50;1.92;;;;;;;;;;5060605;28;20095;-59
2021/05/29 00:15:59;;;;;;;3.83;1.90;;;;;;;;;;5053318;28;20057;-60
2021/05/29 00:18:25;;;;;;;4.60;1.83;;;;;;;;;;5042197;28;20108;-59
2021/05/29 00:20:53;;;;;;;6.60;2.08;;;;;;;;;;5037655;28;20083;-60
2021/05/29 00:23:19;;;;;;;4.97;1.90;;;;;;;;;;5048595;28;20040;-60
2021/05/29 00:25:46;;;;;;;8.10;2.15;;;;;;;;;;5057809;28;20037;-59
2021/05/29 00:28:13;;;;;;;6.47;2.20;;;;;;;;;;5057449;28;20067;-59
2021/05/29 00:30:39;;;;;;;4.15;2.17;;;;;;;;;;5061585;28;20041;-59
2021/05/29 00:33:07;;;;;;;5.40;2.50;;;;;;;;;;5053948;28;20073;-59
2021/05/29 00:35:34;;;;;;;7.13;2.30;;;;;;;;;;5038658;28;20045;-60
2021/05/29 00:38:00;;;;;;;8.43;2.53;;;;;;;;;;5050354;28;20318;-59
2021/05/29 00:40:28;;;;;;;7.20;2.20;;;;;;;;;;5056141;28;20061;-61
2021/05/29 00:42:54;;;;;;;6.40;2.60;;;;;;;;;;5049366;28;20036;-62
2021/05/29 00:45:20;;;;;;;6.15;2.42;;;;;;;;;;5063552;28;20112;-61
2021/05/29 00:47:46;;;;;;;6.57;2.85;;;;;;;;;;5060085;28;20037;-62
2021/05/29 00:50:14;;;;;;;12.68;2.67;;;;;;;;;;5064503;28;20055;-61
2021/05/29 00:52:40;;;;;;;8.05;2.88;;;;;;;;;;5059146;28;20049;-60
2021/05/29 00:55:08;;;;;;;6.82;2.95;;;;;;;;;;5064594;28;20048;-61
2021/05/29 00:57:35;;;;;;;6.18;2.55;;;;;;;;;;5058070;28;20037;-62
2021/05/29 01:00:03;;;;;;;7.78;2.85;;;;;;;;;;5042282;28;20029;-60
2021/05/29 01:02:29;;;;;;;6.82;2.72;;;;;;;;;;5041738;28;20054;-62
2021/05/29 01:04:55;;;;;;;9.10;3.22;;;;;;;;;;5044976;28;20049;-60
2021/05/29 01:07:22;;;;;;;9.30;3.03;;;;;;;;;;5046189;28;20033;-61
2021/05/29 01:09:48;;;;;;;7.32;3.17;;;;;;;;;;5042088;28;20049;-62
2021/05/29 01:12:17;;;;;;;8.25;3.17;;;;;;;;;;5043050;28;20045;-60
2021/05/29 01:14:52;;;;;;;8.43;3.08;;;;;;;;;;5032326;28;20090;-60
2021/05/29 01:17:19;;;;;;;6.93;3.03;;;;;;;;;;5041692;28;20049;-59
2021/05/29 01:19:46;;;;;;;8.43;3.08;;;;;;;;;;5055218;28;20045;-60
2021/05/29 01:22:14;;;;;;;6.53;3.03;;;;;;;;;;5062521;28;20041;-61
2021/05/29 01:24:40;;;;;;;8.90;2.90;;;;;;;;;;5046285;28;20037;-61
2021/05/29 01:27:07;;;;;;;7.82;3.00;;;;;;;;;;5059320;28;20046;-60
2021/05/29 01:29:34;;;;;;;6.55;2.78;;;;;;;;;;5057174;28;20057;-61
2021/05/29 01:32:02;;;;;;;9.93;2.65;;;;;;;;;;5062612;28;20059;-61
2021/05/29 01:34:29;;;;;;;8.10;2.88;;;;;;;;;;5050332;28;20048;-61
2021/05/29 01:36:56;;;;;;;7.20;2.88;;;;;;;;;;5043894;28;20055;-61
2021/05/29 01:39:23;;;;;;;5.95;2.78;;;;;;;;;;5045124;28;20127;-61
2021/05/29 01:41:51;;;;;;;6.30;2.35;;;;;;;;;;5061055;28;20098;-60
2021/05/29 01:44:17;;;;;;;8.00;2.97;;;;;;;;;;5055995;28;20041;-61
2021/05/29 01:46:44;;;;;;;5.00;2.53;;;;;;;;;;5042121;28;20049;-60
2021/05/29 01:49:10;;;;;;;6.70;2.55;;;;;;;;;;5040622;28;20042;-62
2021/05/29 01:51:36;;;;;;;7.45;2.80;;;;;;;;;;5042941;28;20041;-60
2021/05/29 01:54:04;;;;;;;7.80;2.47;;;;;;;;;;5041086;28;20056;-61
2021/05/29 01:56:31;;;;;;;6.28;2.58;;;;;;;;;;5036317;28;20056;-61
2021/05/29 01:58:59;;;;;;;7.10;2.45;;;;;;;;;;5041581;28;20064;-60
2021/05/29 02:01:26;;;;;;;5.05;2.35;;;;;;;;;;5047452;28;20033;-61
2021/05/29 02:03:52;;;;;;;7.25;2.45;;;;;;;;;;5061667;28;20037;-61
2021/05/29 02:06:18;;;;;;;5.88;2.33;;;;;;;;;;5044957;28;20041;-61
2021/05/29 02:08:44;;;;;;;6.15;2.58;;;;;;;;;;5042295;28;20065;-61
2021/05/29 02:11:10;;;;;;;6.43;2.63;;;;;;;;;;5038261;28;20037;-64
2021/05/29 02:13:40;;;;;;;6.50;2.33;;;;;;;;;;5042143;28;20127;-62
2021/05/29 02:16:06;;;;;;;5.20;2.45;;;;;;;;;;5037534;28;20041;-61
2021/05/29 02:18:33;;;;;;;6.78;2.63;;;;;;;;;;5041154;28;20041;-61
2021/05/29 02:21:02;;;;;;;5.97;2.53;;;;;;;;;;5044979;28;20056;-61
2021/05/29 02:23:29;;;;;;;7.82;3.13;;;;;;;;;;5062176;28;20049;-60
2021/05/29 02:25:56;;;;;;;9.15;2.47;;;;;;;;;;5054878;28;20069;-61
2021/05/29 02:28:23;;;;;;;5.75;2.40;;;;;;;;;;5042445;28;20056;-61
2021/05/29 02:30:52;;;;;;;6.70;2.60;;;;;;;;;;5040234;28;20133;-60
2021/05/29 02:33:18;;;;;;;7.07;2.42;;;;;;;;;;5063561;28;20109;-62
2021/05/29 02:35:44;;;;;;;4.70;2.15;;;;;;;;;;5061576;28;20057;-61
2021/05/29 02:38:11;;;;;;;3.97;1.77;;;;;;;;;;5056085;28;20041;-61
2021/05/29 02:40:40;;;;;;;5.00;1.85;;;;;;;;;;5044930;28;20033;-61
2021/05/29 02:43:06;;;;;;;4.22;2.00;;;;;;;;;;5057518;28;20029;-61
2021/05/29 02:45:34;;;;;;;5.18;1.83;;;;;;;;;;5064144;28;20073;-62
2021/05/29 02:48:01;;;;;;;5.47;2.20;;;;;;;;;;5057805;28;20040;-61
2021/05/29 02:50:27;;;;;;;5.18;2.03;;;;;;;;;;5064170;28;20285;-60
2021/05/29 02:52:53;;;;;;;6.93;2.10;;;;;;;;;;5047668;28;20052;-60
2021/05/29 02:55:22;;;;;;;4.03;1.95;;;;;;;;;;5042099;28;20041;-61
2021/05/29 02:57:48;;;;;;;;;;;;;;;;;;5050680;28;20077;-59
2021/05/29 03:00:15;;;;;;;4.57;1.83;;;;;;;;;;5060057;28;19920;-61
2021/05/29 03:02:41;;;;;;;6.28;2.30;;;;;;;;;;5058839;28;20049;-61
2021/05/29 03:05:09;;;;;;;5.18;2.28;;;;;;;;;;5062371;28;20037;-62
2021/05/29 03:07:35;;;;;;;8.63;2.53;;;;;;;;;;5057370;28;20110;-60
2021/05/29 03:10:01;;;;;;;6.30;2.40;;;;;;;;;;5062120;28;20033;-61
2021/05/29 03:12:27;;;;;;;5.45;2.33;;;;;;;;;;5056868;28;20037;-60
2021/05/29 03:14:53;;;;;;;6.63;2.65;;;;;;;;;;5043657;28;20052;-61
2021/05/29 03:17:19;;;;;;;11.27;2.70;;;;;;;;;;5041807;28;20036;-59
2021/05/29 03:19:46;;;;;;;8.73;2.58;;;;;;;;;;5036587;28;20045;-60
2021/05/29 03:22:13;;;;;;;6.55;2.70;;;;;;;;;;5040358;28;20082;-60
2021/05/29 03:24:39;;;;;;;5.95;2.55;;;;;;;;;;5038073;28;20073;-61
2021/05/29 03:27:05;;;;;;;6.18;2.80;;;;;;;;;;5057164;28;20029;-61
2021/05/29 03:29:32;;;;;;;6.47;2.45;;;;;;;;;;5044789;28;20075;-61
2021/05/29 03:31:58;;;;;;;7.88;2.30;;;;;;;;;;5040196;28;20127;-61
2021/05/29 03:34:24;;;;;;;7.45;2.80;;;;;;;;;;5048353;28;20075;-61
2021/05/29 03:36:50;;;;;;;6.50;2.25;;;;;;;;;;5061058;28;20044;-61
2021/05/29 03:39:17;;;;;;;7.80;2.83;;;;;;;;;;5046786;28;20045;-59
2021/05/29 03:41:43;;;;;;;10.93;2.33;;;;;;;;;;5056399;28;20049;-60
2021/05/29 03:44:09;;;;;;;6.10;2.55;;;;;;;;;;5054156;28;20093;-60
2021/05/29 03:46:35;;;;;;;12.38;2.53;;;;;;;;;;5041615;28;20073;-61
2021/05/29 03:49:03;;;;;;;8.68;3.20;;;;;;;;;;5038056;28;20057;-61
2021/05/29 03:51:29;;;;;;;6.78;2.20;;;;;;;;;;5041142;28;20034;-60
2021/05/29 03:53:55;;;;;;;7.50;2.45;;;;;;;;;;5039899;28;20074;-60
2021/05/29 03:56:22;;;;;;;7.88;2.33;;;;;;;;;;5040616;28;20172;-59
2021/05/29 03:58:48;;;;;;;5.47;2.50;;;;;;;;;;5040971;28;20047;-60
2021/05/29 04:01:14;;;;;;;9.05;2.50;;;;;;;;;;5039056;28;20029;-60
2021/05/29 04:03:40;;;;;;;8.50;2.35;;;;;;;;;;5039412;28;20049;-59
2021/05/29 04:06:06;;;;;;;4.00;1.95;;;;;;;;;;5037961;28;20122;-60
2021/05/29 04:08:32;;;;;;;6.65;2.50;;;;;;;;;;5041149;28;20041;-60
2021/05/29 04:10:58;;;;;;;6.82;2.40;;;;;;;;;;5051953;28;20130;-60
2021/05/29 04:13:25;;;;;;;5.32;2.20;;;;;;;;;;5061274;28;20083;-60
2021/05/29 04:15:52;;;;;;;5.13;2.40;;;;;;;;;;5057691;28;20052;-60
2021/05/29 04:18:18;;;;;;;4.70;2.15;;;;;;;;;;5063124;28;20090;-58
2021/05/29 04:20:44;;;;;;;4.93;2.50;;;;;;;;;;5059707;28;20047;-61
2021/05/29 04:23:10;;;;;;;5.20;2.42;;;;;;;;;;5064370;28;20037;-59
2021/05/29 04:25:36;;;;;;;6.53;2.40;;;;;;;;;;5057547;28;20061;-61
2021/05/29 04:28:02;;;;;;;6.13;2.53;;;;;;;;;;5042795;28;20052;-60
2021/05/29 04:30:30;;;;;;;6.13;2.60;;;;;;;;;;5041542;28;20053;-61
2021/05/29 04:32:56;;;;;;;8.10;2.50;;;;;;;;;;5042897;28;20045;-60
2021/05/29 04:35:23;;;;;;;6.05;2.78;;;;;;;;;;5042720;28;20064;-61
2021/05/29 04:37:49;;;;;;;6.90;2.97;;;;;;;;;;5057590;28;20053;-60
2021/05/29 04:40:16;;;;;;;8.35;2.78;;;;;;;;;;5060430;28;20111;-60
2021/05/29 04:42:42;;;;;;;6.18;2.72;;;;;;;;;;5053315;28;20092;-58
2021/05/29 04:45:10;;;;;;;9.25;2.70;;;;;;;;;;5063565;28;20048;-59
2021/05/29 04:47:37;;;;;;;7.70;3.13;;;;;;;;;;5058125;28;20056;-60
2021/05/29 04:50:04;;;;;;;10.93;3.10;;;;;;;;;;5062815;28;20055;-59
2021/05/29 04:52:30;;;;;;;7.30;3.03;;;;;;;;;;5059645;28;20052;-57
2021/05/29 04:54:56;;;;;;;9.80;3.15;;;;;;;;;;5063943;28;20033;-59
2021/05/29 04:57:22;;;;;;;9.88;3.05;;;;;;;;;;5059020;28;20088;-59
2021/05/29 04:59:49;;;;;;;9.68;3.28;;;;;;;;;;5061785;28;20045;-60
2021/05/29 05:02:15;;;;;;;8.35;3.50;;;;;;;;;;5055764;28;20081;-58
2021/05/29 05:04:42;;;;;;;10.73;3.35;;;;;;;;;;5043133;28;20055;-59
2021/05/29 05:07:07;;;;;;;9.48;3.40;;;;;;;;;;5043085;28;20052;-58
2021/05/29 05:09:34;;;;;;;8.77;3.25;;;;;;;;;;5063871;28;20045;-59
2021/05/29 05:12:00;;;;;;;12.02;3.58;;;;;;;;;;5063389;28;20052;-59
2021/05/29 05:14:26;;;;;;;9.25;3.50;;;;;;;;;;5062121;28;20094;-60
2021/05/29 05:16:52;;;;;;;8.27;3.55;;;;;;;;;;5063338;28;20047;-60
2021/05/29 05:19:19;;;;;;;11.10;3.70;;;;;;;;;;5057893;28;20048;-60
2021/05/29 05:21:46;;;;;;;8.35;3.85;;;;;;;;;;5063490;28;20055;-59
2021/05/29 05:24:12;;;;;;;11.85;3.88;;;;;;;;;;5059852;28;20036;-58
2021/05/29 05:26:38;;;;;;;9.35;3.42;;;;;;;;;;5052467;28;20075;-61
2021/05/29 05:29:04;;;;;;;9.00;3.88;;;;;;;;;;5045705;28;20037;-60
2021/05/29 05:31:31;;;;;;;8.80;4.07;;;;;;;;;;5042323;28;20096;-61
2021/05/29 05:34:06;;;;;;;11.27;3.60;;;;;;;;;;5048149;28;20056;-60
2021/05/29 05:36:32;;;;;;;14.63;4.25;;;;;;;;;;5040286;28;20041;-59
2021/05/29 05:38:59;;;;;;;8.25;4.10;;;;;;;;;;5039909;28;20037;-59
2021/05/29 05:41:25;;;;;;;9.55;4.05;;;;;;;;;;5062903;28;20048;-59
2021/05/29 05:43:52;;;;;;;9.73;3.63;;;;;;;;;;5056600;28;20145;-59
2021/05/29 05:46:18;;;;;;;11.18;4.22;;;;;;;;;;5042108;28;20040;-61
2021/05/29 05:48:44;;;;;;;9.25;4.22;;;;;;;;;;5041417;28;20029;-60
2021/05/29 05:51:19;;;;;;;13.77;6.13;;;;;;;;;;5045739;28;20041;-59
2021/05/29 05:53:45;;;;;;;11.13;5.03;;;;;;;;;;5039694;28;20047;-59
2021/05/29 05:56:16;;;;;;;11.52;4.85;;;;;;;;;;5049276;28;20037;-60
2021/05/29 05:58:42;;;;;;;11.20;4.65;;;;;;;;;;5062751;28;20073;-60
2021/05/29 06:01:09;;;;;;;11.93;4.75;;;;;;;;;;5071171;28;20141;-61
2021/05/29 06:03:35;;;;;;;13.88;5.00;;;;;;;;;;5062131;28;20059;-61
2021/05/29 06:06:02;;;;;;;15.35;4.72;;;;;;;;;;5054913;28;20037;-60
2021/05/29 06:08:27;;;;;;;13.27;5.22;;;;;;;;;;5058870;28;20098;-60
2021/05/29 06:10:54;;;;;;;11.18;4.68;;;;;;;;;;5051725;28;20052;-61
2021/05/29 06:13:34;;;;;;;10.98;4.70;;;;;;;;;;5052228;28;20049;-60
2021/05/29 06:19:09;;;;;;;13.27;4.93;;;;;;;;;;5053836;28;20137;-60
2021/05/29 06:21:36;;;;;;;9.70;4.15;;;;;;;;;;5049807;28;20057;-60
2021/05/29 06:24:04;;;;;;;11.95;4.82;;;;;;;;;;5054532;28;20048;-60
2021/05/29 06:26:30;;;;;;;10.45;4.75;;;;;;;;;;5049906;28;20041;-61
2021/05/29 06:28:59;;;;;;;12.27;4.97;;;;;;;;;;5058524;28;20045;-60
2021/05/29 06:31:25;;;;;;;12.63;5.22;;;;;;;;;;5042367;28;20052;-60
2021/05/29 06:33:51;;;;;;;11.95;5.28;;;;;;;;;;5053023;28;20034;-61
2021/05/29 06:36:17;;;;;;;14.15;5.03;;;;;;;;;;5048774;28;20036;-61
2021/05/29 06:38:45;;;;;;;14.15;4.95;;;;;;;;;;5054516;28;20051;-60
2021/05/29 06:41:11;;;;;;;10.65;4.70;;;;;;;;;;5047747;28;20047;-60
2021/05/29 06:43:37;;;;;;;12.15;5.10;;;;;;;;;;5051994;28;20134;-60
2021/05/29 06:46:04;;;;;;;15.60;5.47;;;;;;;;;;5053062;28;20104;-60
2021/05/29 06:48:30;;;;;;;11.10;4.97;;;;;;;;;;5068622;28;20048;-61
2021/05/29 06:50:57;;;;;;;10.68;4.85;;;;;;;;;;5069712;28;20049;-60
2021/05/29 06:53:27;;;;;;;24.65;10.85;;;;;;;;;;5078366;28;20142;-58
2021/05/29 06:58:48;;;;;;;12.93;4.70;;;;;;;;;;5066275;28;20045;-59
2021/05/29 07:01:15;;;;;;;14.02;4.63;;;;;;;;;;5069243;28;20044;-59
2021/05/29 07:03:46;;;;;;;10.52;4.07;;;;;;;;;;5069528;28;20076;-57
2021/05/29 07:06:12;;;;;;;9.25;3.63;;;;;;;;;;5064889;28;20033;-60
2021/05/29 07:08:39;;;;;;;10.98;3.97;;;;;;;;;;5050418;28;20064;-60
2021/05/29 07:11:07;;;;;;;11.40;4.40;;;;;;;;;;5070013;28;20080;-59
2021/05/29 07:13:33;;;;;;;;;;;;;;;;;;5060121;28;20041;-59
2021/05/29 07:16:00;;;;;;;8.85;4.00;;;;;;;;;;5053776;28;19953;-59
2021/05/29 07:18:30;;;;;;;9.48;3.70;;;;;;;;;;5059078;28;20052;-59
2021/05/29 07:21:02;;;;;;;8.40;3.40;;;;;;;;;;5069551;28;20044;-59
2021/05/29 07:23:28;;;;;;;12.82;3.97;;;;;;;;;;5071432;28;20061;-59
2021/05/29 07:25:54;;;;;;;7.25;3.05;;;;;;;;;;5076477;28;20048;-59
2021/05/29 07:28:20;;;;;;;8.65;3.83;;;;;;;;;;5068144;28;20028;-59
2021/05/29 07:30:49;;;;;;;8.50;3.72;;;;;;;;;;5072709;28;20097;-59
2021/05/29 07:33:15;;;;;;;10.80;3.42;;;;;;;;;;5063315;28;20051;-60
2021/05/29 07:35:43;;;;;;;12.23;3.70;;;;;;;;;;5056077;28;20053;-62
2021/05/29 07:38:10;;;;;;;9.52;3.28;;;;;;;;;;5045079;28;20057;-59
2021/05/29 07:40:37;;;;;;;7.93;3.75;;;;;;;;;;5057063;28;20044;-60
2021/05/29 07:43:07;;;;;;;9.40;3.58;;;;;;;;;;5060535;28;20040;-60
2021/05/29 07:45:34;;;;;;;12.82;4.43;;;;;;;;;;5068809;28;20044;-60
2021/05/29 07:48:00;;;;;;;8.23;3.03;;;;;;;;;;5058984;28;20045;-59
2021/05/29 07:50:26;;;;;;;10.77;3.83;;;;;;;;;;5045449;28;20029;-61
2021/05/29 07:52:53;;;;;;;9.57;3.70;;;;;;;;;;5054508;28;20045;-61
2021/05/29 07:55:20;;;;;;;7.28;3.10;;;;;;;;;;5059242;28;20099;-60
2021/05/29 07:57:46;;;;;;;8.77;3.35;;;;;;;;;;5074962;28;20110;-60
2021/05/29 08:00:15;;;;;;;6.90;2.92;;;;;;;;;;5073753;28;20036;-60
2021/05/29 08:02:41;;;;;;;6.00;3.40;;;;;;;;;;5085613;28;20054;-59
2021/05/29 08:05:14;;;;;;;5.55;3.00;;;;;;;;;;5079809;28;20041;-61
2021/05/29 08:07:40;;;;;;;9.63;3.60;;;;;;;;;;5083794;28;20040;-60
2021/05/29 08:10:09;;;;;;;6.55;3.03;;;;;;;;;;5078782;28;20028;-60
2021/05/29 08:12:38;;;;;;;6.57;2.83;;;;;;;;;;5083403;28;20129;-60
2021/05/29 08:15:04;;;;;;;8.10;3.10;;;;;;;;;;5072843;28;20165;-61
2021/05/29 08:17:30;;;;;;;6.75;3.08;;;;;;;;;;5063618;28;20067;-60
2021/05/29 08:19:57;;;;;;;5.85;2.83;;;;;;;;;;5064558;28;20036;-59
2021/05/29 08:22:24;;;;;;;9.82;2.85;;;;;;;;;;5072000;28;20102;-59
2021/05/29 08:24:50;;;;;;;7.00;2.80;;;;;;;;;;5062445;28;20045;-59
2021/05/29 08:27:17;;;;;;;8.25;3.33;;;;;;;;;;5084952;28;20047;-60
2021/05/29 08:29:43;;;;;;;8.05;2.78;;;;;;;;;;5083581;28;20036;-60
2021/05/29 08:32:09;;;;;;;7.10;3.30;;;;;;;;;;5062080;28;20033;-60
2021/05/29 08:34:36;;;;;;;8.45;3.90;;;;;;;;;;5063273;28;20121;-60
2021/05/29 08:37:02;;;;;;;7.55;3.65;;;;;;;;;;5059881;28;20045;-61
2021/05/29 08:39:30;;;;;;;8.20;3.22;;;;;;;;;;5062841;28;20048;-60
2021/05/29 08:41:57;;;;;;;9.20;3.88;;;;;;;;;;5073334;28;20104;-59
2021/05/29 08:44:24;;;;;;;9.02;3.40;;;;;;;;;;5084055;28;20218;-61
2021/05/29 08:46:50;;;;;;;6.50;2.92;;;;;;;;;;5069157;28;20036;-62
2021/05/29 08:49:16;;;;;;;7.00;3.17;;;;;;;;;;5064983;28;20107;-60
2021/05/29 08:51:42;;;;;;;10.75;3.53;;;;;;;;;;5069085;28;20048;-61
2021/05/29 08:54:08;;;;;;;10.32;3.30;;;;;;;;;;5082287;28;20036;-61
2021/05/29 08:56:35;;;;;;;7.70;3.22;;;;;;;;;;5074220;28;20037;-60
2021/05/29 08:59:02;;;;;;;7.72;2.90;;;;;;;;;;5065079;28;20052;-61
2021/05/29 09:01:29;;;;;;;10.20;4.95;;;;;;;;;;5064484;28;20094;-60
2021/05/29 09:03:56;;;;;;;6.78;3.20;;;;;;;;;;5087403;28;20032;-62
2021/05/29 09:06:36;;;;;;;13.13;4.10;;;;;;;;;;5080341;28;20055;-59
2021/05/29 09:09:04;;;;;;;9.23;4.05;;;;;;;;;;5083747;28;20044;-60
2021/05/29 09:11:42;;;;;;;8.30;3.38;;;;;;;;;;5079508;28;20051;-60
2021/05/29 09:14:27;;;;;;;9.00;3.70;;;;;;;;;;5064043;28;20047;-60
2021/05/29 09:17:01;;;;;;;9.82;3.65;;;;;;;;;;5060703;28;20041;-60
2021/05/29 09:19:27;;;;;;;9.15;3.63;;;;;;;;;;5083309;28;20032;-60
2021/05/29 09:21:53;;;;;;;5.97;3.25;;;;;;;;;;5080083;28;20032;-59
2021/05/29 09:24:19;;;;;;;8.55;3.38;;;;;;;;;;5063863;28;20048;-60
2021/05/29 09:26:46;;;;;;;7.70;3.40;;;;;;;;;;5062720;28;20047;-60
2021/05/29 09:29:14;;;;;;;7.25;3.20;;;;;;;;;;5060814;28;20123;-60
2021/05/29 09:31:49;;;;;;;7.40;3.63;;;;;;;;;;5063793;28;20087;-59
2021/05/29 09:34:28;;;;;;;9.10;3.75;;;;;;;;;;5075910;28;20064;-60
2021/05/29 09:37:01;;;;;;;7.88;3.40;;;;;;;;;;5075482;28;20137;-59
2021/05/29 09:39:31;;;;;;;10.88;3.90;;;;;;;;;;5058441;28;20041;-59
2021/05/29 09:41:58;;;;;;;11.48;3.90;;;;;;;;;;5064038;28;20052;-59
2021/05/29 09:44:27;;;;;;;9.68;3.53;;;;;;;;;;5059864;28;20049;-59
2021/05/29 09:46:54;;;;;;;11.25;4.22;;;;;;;;;;5063218;28;20103;-60
2021/05/29 09:49:20;;;;;;;7.88;3.55;;;;;;;;;;5058574;28;20097;-61
2021/05/29 09:51:47;;;;;;;13.32;3.97;;;;;;;;;;5062339;28;20052;-60
2021/05/29 09:54:13;;;;;;;8.93;3.45;;;;;;;;;;5059104;28;20049;-60
2021/05/29 09:56:41;;;;;;;10.43;4.10;;;;;;;;;;5048497;28;20125;-60
2021/05/29 09:59:07;;;;;;;8.63;3.63;;;;;;;;;;5047206;28;20128;-59
2021/05/29 10:01:59;;;;;;;10.75;3.78;;;;;;;;;;5049747;28;20053;-60
2021/05/29 10:04:35;;;;;;;10.07;3.90;;;;;;;;;;5024856;28;20041;-60
2021/05/29 10:07:03;;;;;;;9.07;3.72;;;;;;;;;;5043696;28;20037;-60
2021/05/29 10:09:29;;;;;;;8.90;4.00;;;;;;;;;;5044707;28;20025;-60
2021/05/29 10:11:58;;;;;;;6.82;3.60;;;;;;;;;;5059483;28;20025;-60
2021/05/29 10:14:24;;;;;;;8.82;3.55;;;;;;;;;;5053729;28;20077;-59
2021/05/29 10:16:50;;;;;;;6.45;3.13;;;;;;;;;;5039858;28;20037;-59
2021/05/29 10:19:20;;;;;;;10.18;3.70;;;;;;;;;;5040767;28;20037;-60
2021/05/29 10:21:47;;;;;;;9.65;4.22;;;;;;;;;;5043773;28;20029;-59
2021/05/29 10:24:14;;;;;;;9.38;3.47;;;;;;;;;;5043756;28;20115;-60
2021/05/29 10:26:40;;;;;;;8.45;3.08;;;;;;;;;;5055716;28;20045;-60
2021/05/29 10:29:09;;;;;;;10.68;3.80;;;;;;;;;;5045292;28;20041;-60
2021/05/29 10:31:36;;;;;;;9.13;3.72;;;;;;;;;;5039141;28;20037;-60
2021/05/29 10:34:02;;;;;;;10.18;3.67;;;;;;;;;;5042792;28;20048;-60
2021/05/29 10:36:39;;;;;;;8.55;3.22;;;;;;;;;;5041808;28;20049;-60
2021/05/29 10:39:06;;;;;;;14.38;3.85;;;;;;;;;;5060394;28;20047;-59
2021/05/29 10:41:51;;;;;;;8.93;4.07;;;;;;;;;;5056922;28;20051;-60
2021/05/29 10:44:32;;;;;;;8.52;3.75;;;;;;;;;;5062222;28;20045;-59
2021/05/29 10:47:18;;;;;;;5.85;3.38;;;;;;;;;;5057165;28;20056;-60
2021/05/29 10:49:54;;;;;;;8.52;3.78;;;;;;;;;;5053850;28;20057;-60
2021/05/29 10:52:47;;;;;;;8.65;2.53;;;;;;;;;;5038630;28;20052;-59
2021/05/29 10:55:25;;;;;;;7.50;2.83;;;;;;;;;;5007359;28;20049;-60
2021/05/29 10:57:51;;;;;;;;;;;;;;;;;;5037093;28;20068;-59
2021/05/29 11:00:32;;;;;;;9.27;3.58;;;;;;;;;;5041291;28;19939;-60
2021/05/29 11:03:13;;;;;;;6.70;3.28;;;;;;;;;;5036675;28;20038;-60
2021/05/29 11:05:40;;;;;;;6.47;3.03;;;;;;;;;;5043865;28;20037;-60
2021/05/29 11:08:21;;;;;;;9.50;3.30;;;;;;;;;;5038679;28;20049;-61
2021/05/29 11:10:47;;;;;;;7.90;3.65;;;;;;;;;;5039938;28;20045;-61
2021/05/29 11:13:13;;;;;;;6.78;3.10;;;;;;;;;;5039201;28;20119;-61
2021/05/29 11:15:54;;;;;;;7.70;3.00;;;;;;;;;;5043676;28;20057;-59
2021/05/29 11:18:20;;;;;;;8.32;3.58;;;;;;;;;;5053919;28;20051;-60
2021/05/29 11:21:07;;;;;;;7.25;3.28;;;;;;;;;;5060098;28;20041;-60
2021/05/29 11:23:33;;;;;;;8.32;3.75;;;;;;;;;;5053371;28;20077;-60
2021/05/29 11:25:59;;;;;;;9.90;5.10;;;;;;;;;;5041123;28;20078;-60
2021/05/29 11:28:25;;;;;;;12.80;4.97;;;;;;;;;;5038463;28;20041;-60
2021/05/29 11:30:57;;;;;;;7.90;3.65;;;;;;;;;;5040688;28;20118;-60
2021/05/29 11:33:23;;;;;;;8.35;4.10;;;;;;;;;;5036786;28;20099;-60
2021/05/29 11:35:50;;;;;;;8.70;4.20;;;;;;;;;;5039363;28;20041;-60
2021/05/29 11:38:18;;;;;;;12.63;4.43;;;;;;;;;;5041344;28;20041;-61
2021/05/29 11:40:47;;;;;;;8.77;4.05;;;;;;;;;;5047018;28;20041;-60
2021/05/29 11:43:14;;;;;;;7.20;3.30;;;;;;;;;;5048466;28;20050;-60
2021/05/29 11:45:43;;;;;;;10.23;3.83;;;;;;;;;;5051225;28;20077;-60
2021/05/29 11:48:09;;;;;;;7.72;3.95;;;;;;;;;;5044137;28;20038;-60
2021/05/29 11:50:40;;;;;;;9.00;4.13;;;;;;;;;;5052075;28;20045;-60
2021/05/29 11:53:06;;;;;;;10.57;4.10;;;;;;;;;;5050914;28;20064;-61
2021/05/29 11:55:47;;;;;;;10.15;4.75;;;;;;;;;;5054301;28;20045;-61
2021/05/29 11:58:14;;;;;;;8.45;3.80;;;;;;;;;;5051009;28;20033;-60
2021/05/29 12:00:54;;;;;;;7.10;3.30;;;;;;;;;;5061116;28;20033;-61
2021/05/29 12:03:34;;;;;;;8.98;3.10;;;;;;;;;;5073776;28;20043;-61
2021/05/29 12:06:00;;;;;;;9.70;3.30;;;;;;;;;;5067308;28;20060;-62
2021/05/29 12:08:27;;;;;;;6.93;3.20;;;;;;;;;;5065866;28;20056;-61
2021/05/29 12:10:53;;;;;;;7.60;3.25;;;;;;;;;;5066625;28;20045;-59
2021/05/29 12:13:24;;;;;;;8.57;3.70;;;;;;;;;;5072698;28;20040;-61
2021/05/29 12:15:55;;;;;;;7.47;3.30;;;;;;;;;;5065459;28;20114;-62
2021/05/29 12:18:21;;;;;;;6.82;2.58;;;;;;;;;;5069675;28;20044;-60
2021/05/29 12:20:58;;;;;;;7.32;2.70;;;;;;;;;;5063330;28;20036;-61
2021/05/29 12:23:25;;;;;;;5.78;2.65;;;;;;;;;;5062724;28;20056;-60
2021/05/29 12:25:52;;;;;;;5.30;2.65;;;;;;;;;;5045447;28;20033;-61
2021/05/29 12:28:19;;;;;;;5.55;2.42;;;;;;;;;;5045710;28;20044;-61
2021/05/29 12:30:48;;;;;;;8.60;3.20;;;;;;;;;;5037422;28;20045;-61
2021/05/29 12:33:18;;;;;;;6.78;3.22;;;;;;;;;;5049107;28;20033;-61
2021/05/29 12:35:44;;;;;;;7.13;3.05;;;;;;;;;;5065788;28;20081;-62
2021/05/29 12:38:12;;;;;;;7.72;3.05;;;;;;;;;;5061532;28;20049;-61
2021/05/29 12:40:38;;;;;;;7.00;2.83;;;;;;;;;;5064143;28;20044;-62
2021/05/29 12:43:12;;;;;;;6.50;2.90;;;;;;;;;;5083760;28;20044;-61
2021/05/29 12:45:41;;;;;;;6.18;2.83;;;;;;;;;;5071465;28;20069;-61
2021/05/29 12:48:11;;;;;;;7.22;2.72;;;;;;;;;;5073706;28;20070;-61
2021/05/29 12:50:38;;;;;;;7.00;2.80;;;;;;;;;;5064132;28;20092;-62
2021/05/29 12:53:08;;;;;;;6.03;2.53;;;;;;;;;;5083773;28;20036;-62
2021/05/29 12:55:34;;;;;;;8.25;2.60;;;;;;;;;;5079635;28;20084;-62
2021/05/29 12:58:11;;;;;;;7.05;2.55;;;;;;;;;;5083331;28;20052;-65
2021/05/29 13:00:44;;;;;;;7.32;3.10;;;;;;;;;;5077427;28;20040;-66
2021/05/29 13:09:07;;;;;;;8.07;2.70;;;;;;;;;;5084729;28;20114;-65
2021/05/29 13:11:35;;;;;;;6.40;2.63;;;;;;;;;;5080193;28;20096;-66
2021/05/29 13:14:01;;;;;;;6.38;3.20;;;;;;;;;;5083185;28;20051;-70
2021/05/29 13:16:27;;;;;;;7.25;3.30;;;;;;;;;;5075092;28;20037;-63
2021/05/29 13:19:01;;;;;;;6.72;2.90;;;;;;;;;;5063191;28;20052;-55
2021/05/29 13:21:30;;;;;;;7.40;3.10;;;;;;;;;;5058938;28;20033;-60
2021/05/29 13:23:58;;;;;;;6.68;3.10;;;;;;;;;;5062994;28;20052;-53
2021/05/29 13:26:24;;;;;;;6.88;3.22;;;;;;;;;;5060642;28;20057;-59
2021/05/29 13:28:51;;;;;;;8.32;4.00;;;;;;;;;;5062418;28;20069;-54
2021/05/29 13:31:17;;;;;;;12.43;3.30;;;;;;;;;;5063576;28;20033;-57
2021/05/29 13:33:44;;;;;;;6.07;3.00;;;;;;;;;;5058936;28;20041;-58
2021/05/29 13:36:11;;;;;;;6.68;3.30;;;;;;;;;;5063342;28;20052;-57
2021/05/29 13:38:39;;;;;;;7.50;3.22;;;;;;;;;;5067430;28;20044;-57
2021/05/29 13:41:06;;;;;;;6.93;3.10;;;;;;;;;;5072948;28;20051;-54
2021/05/29 13:43:32;;;;;;;11.63;3.58;;;;;;;;;;5074627;28;20291;-58
2021/05/29 13:45:58;;;;;;;8.35;3.80;;;;;;;;;;5085142;28;20029;-59
2021/05/29 13:48:24;;;;;;;7.25;3.47;;;;;;;;;;5080820;28;20068;-62
2021/05/29 13:50:54;;;;;;;5.38;2.95;;;;;;;;;;5084343;28;20082;-60
2021/05/29 13:53:21;;;;;;;7.10;3.42;;;;;;;;;;5079014;28;20076;-57
2021/05/29 13:55:50;;;;;;;9.02;3.40;;;;;;;;;;5083250;28;20040;-59
2021/05/29 13:58:17;;;;;;;6.05;3.00;;;;;;;;;;5078566;28;20051;-59
2021/05/29 14:00:46;;;;;;;6.20;2.90;;;;;;;;;;5082897;28;20055;-59
2021/05/29 14:03:12;;;;;;;6.03;2.90;;;;;;;;;;5078800;28;20060;-59
2021/05/29 14:05:38;;;;;;;5.35;2.75;;;;;;;;;;5083215;28;20028;-56
2021/05/29 14:08:04;;;;;;;7.28;3.53;;;;;;;;;;5079262;28;20043;-59
2021/05/29 14:10:32;;;;;;;9.07;3.70;;;;;;;;;;5060959;28;20055;-58
2021/05/29 14:12:58;;;;;;;8.03;3.47;;;;;;;;;;5061952;28;20073;-57
2021/05/29 14:15:25;;;;;;;8.35;3.53;;;;;;;;;;5077453;28;20292;-61
2021/05/29 14:17:52;;;;;;;5.97;3.05;;;;;;;;;;5081490;28;20048;-59
2021/05/29 14:20:18;;;;;;;8.73;3.45;;;;;;;;;;5063621;28;20058;-59
2021/05/29 14:22:44;;;;;;;10.85;3.95;;;;;;;;;;5062017;28;20040;-56
2021/05/29 14:25:12;;;;;;;9.70;3.85;;;;;;;;;;5059882;28;20037;-63
2021/05/29 14:27:39;;;;;;;8.90;3.60;;;;;;;;;;5062833;28;20057;-59
2021/05/29 14:30:06;;;;;;;7.57;3.53;;;;;;;;;;5068449;28;20048;-61
2021/05/29 14:32:32;;;;;;;9.32;3.92;;;;;;;;;;5081937;28;20088;-57
2021/05/29 14:34:58;;;;;;;11.02;3.53;;;;;;;;;;5071075;28;20088;-60
2021/05/29 14:37:24;;;;;;;8.63;3.25;;;;;;;;;;5060959;28;20037;-58
2021/05/29 14:39:51;;;;;;;9.30;3.00;;;;;;;;;;5060615;28;20041;-59
2021/05/29 14:42:17;;;;;;;10.23;2.72;;;;;;;;;;5063124;28;20048;-61
2021/05/29 14:44:44;;;;;;;8.90;2.80;;;;;;;;;;5058913;28;20044;-60
2021/05/29 14:47:10;;;;;;;7.72;3.30;;;;;;;;;;5063017;28;20122;-60
2021/05/29 14:49:36;;;;;;;7.60;3.35;;;;;;;;;;5060808;28;20058;-62
2021/05/29 14:52:03;;;;;;;6.07;3.17;;;;;;;;;;5081640;28;20084;-60
2021/05/29 14:54:29;;;;;;;8.05;3.40;;;;;;;;;;5082859;28;20076;-57
2021/05/29 14:56:55;;;;;;;7.72;3.42;;;;;;;;;;5081163;28;20047;-55